Time;durP1;ratioP1;P1;durP2;ratioP2;P2;SDS_P1;SDS_P2;PMS_P1;PMS_P2;Temp;Humidity;BMP_temperature;BMP_pressure;BME280_temperature;BME280_humidity;BME280_pressure;Samples;Min_cycle;Max_cycle;Signal;HPM_P1;HPM_P2
2023/01/30 00:00:23;;;;;;;5.68;4.05;;;6.50;99.90;;;;;;6218143;23;20011;-76
2023/01/30 00:02:49;;;;;;;5.80;3.83;;;6.50;99.90;;;;;;6217228;23;20088;-76
2023/01/30 00:05:14;;;;;;;4.40;3.33;;;6.50;99.90;;;;;;6219037;23;20004;-75
2023/01/30 00:07:40;;;;;;;6.15;4.10;;;6.50;99.90;;;;;;6218717;23;20649;-75
2023/01/30 00:10:06;;;;;;;4.88;3.88;;;6.50;99.90;;;;;;6219362;23;20000;-75
2023/01/30 00:12:32;;;;;;;5.68;4.45;;;6.50;99.90;;;;;;6219612;23;20008;-75
2023/01/30 00:14:57;;;;;;;5.55;3.90;;;6.50;99.90;;;;;;6219067;23;20000;-75
2023/01/30 00:17:23;;;;;;;6.55;4.63;;;6.40;99.90;;;;;;6216846;23;20012;-75
2023/01/30 00:19:49;;;;;;;6.10;4.00;;;6.40;99.90;;;;;;6219634;23;20303;-76
2023/01/30 00:22:14;;;;;;;7.35;4.70;;;6.40;99.90;;;;;;6219713;23;20085;-75
2023/01/30 00:24:40;;;;;;;6.32;4.20;;;6.40;99.90;;;;;;6218581;23;20001;-75
2023/01/30 00:27:05;;;;;;;6.10;4.20;;;6.40;99.90;;;;;;6219100;23;20366;-76
2023/01/30 00:29:31;;;;;;;5.97;4.13;;;6.50;99.90;;;;;;6216879;23;20409;-75
2023/01/30 00:31:57;;;;;;;7.63;4.40;;;6.40;99.90;;;;;;6218807;23;20502;-75
2023/01/30 00:34:22;;;;;;;6.60;4.35;;;6.50;99.90;;;;;;6217989;23;20116;-75
2023/01/30 00:36:48;;;;;;;5.93;4.03;;;6.40;99.90;;;;;;6218449;23;20008;-75
2023/01/30 00:39:14;;;;;;;6.78;4.20;;;6.40;99.90;;;;;;6219247;23;20441;-75
2023/01/30 00:47:07;;;;;;;6.75;4.30;;;6.40;99.90;;;;;;6218471;23;20062;-76
2023/01/30 00:49:34;;;;;;;5.85;4.05;;;6.30;99.90;;;;;;6219384;23;20075;-76
2023/01/30 00:52:00;;;;;;;5.45;3.83;;;6.40;99.90;;;;;;6217856;23;20012;-75
2023/01/30 00:54:26;;;;;;;5.07;4.05;;;6.40;99.90;;;;;;6219918;23;20433;-75
2023/01/30 00:56:51;;;;;;;5.05;3.83;;;6.40;99.90;;;;;;6220483;23;20025;-76
2023/01/30 00:59:17;;;;;;;5.25;3.53;;;6.40;99.90;;;;;;6217465;23;20005;-76
2023/01/30 01:01:43;;;;;;;6.38;3.80;;;6.50;99.90;;;;;;6218819;23;20008;-77
2023/01/30 01:04:09;;;;;;;4.47;3.08;;;6.50;99.90;;;;;;6218521;23;20461;-74
2023/01/30 01:06:36;;;;;;;5.43;3.20;;;6.40;99.90;;;;;;6219618;23;20009;-74
2023/01/30 01:09:02;;;;;;;6.35;3.45;;;6.40;99.90;;;;;;6218141;23;20001;-74
2023/01/30 01:11:28;;;;;;;5.10;3.58;;;6.40;99.90;;;;;;6218068;23;20012;-75
2023/01/30 01:13:56;;;;;;;4.22;3.22;;;6.40;99.90;;;;;;6218066;23;20004;-74
2023/01/30 01:16:22;;;;;;;5.07;3.38;;;6.40;99.90;;;;;;6217587;23;20449;-75
2023/01/30 01:18:48;;;;;;;4.18;3.22;;;6.40;99.90;;;;;;6218696;23;20418;-75
2023/01/30 01:21:13;;;;;;;4.95;3.45;;;6.40;99.90;;;;;;6220094;23;20076;-75
2023/01/30 01:23:39;;;;;;;4.72;3.35;;;6.50;99.90;;;;;;6218436;23;20040;-74
2023/01/30 01:26:05;;;;;;;5.20;3.75;;;6.40;99.90;;;;;;6220239;23;20479;-74
2023/01/30 01:28:31;;;;;;;7.32;4.43;;;6.40;99.90;;;;;;6220453;23;20372;-74
2023/01/30 01:30:56;;;;;;;5.38;3.28;;;6.40;99.90;;;;;;6219733;23;20039;-74
2023/01/30 01:33:26;;;;;;;4.80;3.42;;;6.50;99.90;;;;;;6218090;23;20013;-75
2023/01/30 01:35:56;;;;;;;4.32;2.88;;;6.50;99.90;;;;;;6220038;23;20005;-74
2023/01/30 01:38:22;;;;;;;4.57;3.08;;;6.50;99.90;;;;;;6219707;23;20008;-74
2023/01/30 01:41:06;;;;;;;5.55;3.83;;;6.60;99.90;;;;;;6221272;23;19997;-74
2023/01/30 01:43:37;;;;;;;3.80;3.10;;;6.50;99.90;;;;;;6221816;23;20001;-74
2023/01/30 01:46:27;;;;;;;6.47;4.07;;;6.30;99.90;;;;;;6221764;23;20048;-74
2023/01/30 01:48:56;;;;;;;5.40;3.35;;;6.30;99.90;;;;;;6219766;23;20011;-74
2023/01/30 01:51:39;;;;;;;4.97;3.38;;;6.30;99.90;;;;;;6219995;23;20059;-75
2023/01/30 01:54:14;;;;;;;5.45;4.05;;;6.30;99.90;;;;;;6220249;23;20005;-74
2023/01/30 01:56:43;;;;;;;4.60;3.50;;;6.30;99.90;;;;;;6221928;23;20008;-74
2023/01/30 01:59:29;;;;;;;5.85;3.67;;;6.30;99.90;;;;;;6221707;23;20338;-74
2023/01/30 02:02:00;;;;;;;5.90;3.58;;;6.40;99.90;;;;;;6221207;23;20010;-74
2023/01/30 02:07:14;;;;;;;6.20;4.07;;;6.40;99.90;;;;;;6221628;23;20036;-74
2023/01/30 02:09:40;;;;;;;5.85;3.97;;;6.40;99.90;;;;;;6220005;23;20011;-74
2023/01/30 02:12:05;;;;;;;6.80;4.78;;;6.30;99.90;;;;;;6221158;23;20036;-75
2023/01/30 02:14:32;;;;;;;6.65;4.45;;;6.30;99.90;;;;;;6219900;23;20004;-74
2023/01/30 02:16:58;;;;;;;6.25;4.82;;;6.30;99.90;;;;;;6221203;23;20005;-74
2023/01/30 02:19:56;;;;;;;6.90;4.85;;;6.20;99.90;;;;;;6220328;23;20051;-73
2023/01/30 02:22:35;;;;;;;6.97;4.93;;;6.20;99.90;;;;;;6216564;23;20063;-76
2023/01/30 02:25:15;;;;;;;6.63;4.32;;;6.20;99.90;;;;;;6221446;23;20001;-75
2023/01/30 02:28:05;;;;;;;6.18;4.63;;;6.20;99.90;;;;;;6219653;23;20001;-76
2023/01/30 02:30:36;;;;;;;5.40;3.60;;;6.20;99.90;;;;;;6221116;23;20020;-75
2023/01/30 02:33:40;;;;;;;7.03;4.40;;;6.20;99.90;;;;;;6219274;23;20005;-75
2023/01/30 02:36:15;;;;;;;5.47;3.70;;;6.20;99.90;;;;;;6221639;23;20088;-75
2023/01/30 02:38:56;;;;;;;5.18;4.00;;;6.20;99.90;;;;;;6221114;23;20000;-75
2023/01/30 02:41:37;;;;;;;6.25;3.75;;;6.20;99.90;;;;;;6221137;23;20003;-75
2023/01/30 02:44:12;;;;;;;6.10;4.03;;;6.30;99.90;;;;;;6219461;23;20004;-76
2023/01/30 02:47:00;;;;;;;8.80;5.22;;;6.20;99.90;;;;;;6220553;23;20015;-75
2023/01/30 02:49:43;;;;;;;8.05;4.90;;;6.20;99.90;;;;;;6219508;23;20334;-75
2023/01/30 02:52:15;;;;;;;6.77;4.53;;;6.10;99.90;;;;;;6219404;23;20011;-75
2023/01/30 02:54:40;;;;;;;7.43;4.63;;;6.00;99.90;;;;;;6219430;23;20437;-75
2023/01/30 02:57:22;;;;;;;7.28;5.00;;;6.00;99.90;;;;;;6221089;23;20027;-76
2023/01/30 02:59:59;;;;;;;7.50;4.97;;;6.00;99.90;;;;;;6219394;23;20008;-75
2023/01/30 03:02:25;;;;;;;6.45;4.55;;;6.00;99.90;;;;;;6220325;23;20001;-76
2023/01/30 03:05:21;;;;;;;6.75;4.85;;;6.00;99.90;;;;;;6219298;23;20005;-76
2023/01/30 03:07:59;;;;;;;5.30;4.03;;;6.00;99.90;;;;;;6220997;23;20536;-76
2023/01/30 03:10:36;;;;;;;5.63;3.92;;;6.00;99.90;;;;;;6221085;23;20055;-76
2023/01/30 03:13:58;;;;;;;5.85;3.58;;;6.10;99.90;;;;;;6221120;23;20004;-76
2023/01/30 03:16:31;;;;;;;4.80;3.17;;;6.10;99.90;;;;;;6195673;23;20032;-75
2023/01/30 03:18:59;;;;;;;5.53;3.80;;;6.10;99.90;;;;;;6220774;23;20035;-76
2023/01/30 03:21:25;;;;;;;5.93;4.32;;;6.10;99.90;;;;;;6221128;23;20000;-76
2023/01/30 03:23:51;;;;;;;5.45;3.72;;;6.10;99.90;;;;;;6220696;23;20001;-76
2023/01/30 03:26:21;;;;;;;5.28;3.40;;;6.10;99.90;;;;;;6221036;23;20051;-76
2023/01/30 03:28:49;;;;;;;6.80;3.55;;;6.20;99.90;;;;;;6220395;23;20395;-76
2023/01/30 03:31:15;;;;;;;5.63;3.45;;;6.20;99.90;;;;;;6220621;23;20011;-76
2023/01/30 03:33:41;;;;;;;5.00;3.53;;;6.10;99.90;;;;;;6220597;23;20327;-76
2023/01/30 03:36:08;;;;;;;5.22;3.38;;;6.10;99.90;;;;;;6218957;23;20058;-76
2023/01/30 03:38:34;;;;;;;5.75;3.88;;;6.20;99.90;;;;;;6220559;23;20327;-76
2023/01/30 03:41:00;;;;;;;6.28;4.32;;;6.20;99.90;;;;;;6219568;23;20012;-76
2023/01/30 03:43:26;;;;;;;5.63;3.97;;;6.20;99.90;;;;;;6220614;23;20028;-76
2023/01/30 03:45:52;;;;;;;5.20;4.07;;;6.20;99.90;;;;;;6220591;23;20003;-76
2023/01/30 03:48:18;;;;;;;6.20;4.10;;;6.20;99.90;;;;;;6220484;23;20021;-76
2023/01/30 03:50:44;;;;;;;4.50;3.28;;;6.20;99.90;;;;;;6219018;23;20000;-76
2023/01/30 03:53:10;;;;;;;4.15;3.63;;;6.20;99.90;;;;;;6218954;23;20044;-76
2023/01/30 03:55:35;;;;;;;4.03;3.15;;;6.20;99.90;;;;;;6219096;23;20342;-77
2023/01/30 03:58:01;;;;;;;5.80;4.00;;;6.20;99.90;;;;;;6220590;23;20007;-76
2023/01/30 04:00:27;;;;;;;5.65;3.78;;;6.20;99.90;;;;;;6219236;23;20377;-76
2023/01/30 04:02:53;;;;;;;6.82;4.43;;;6.20;99.90;;;;;;6218119;23;20009;-76
2023/01/30 04:05:19;;;;;;;4.63;3.72;;;6.20;99.90;;;;;;6220481;23;20003;-75
2023/01/30 04:07:45;;;;;;;5.30;3.63;;;6.30;99.90;;;;;;6220605;23;20386;-75
2023/01/30 04:10:14;;;;;;;5.03;3.58;;;6.30;99.90;;;;;;6220340;23;20088;-75
2023/01/30 04:12:41;;;;;;;4.60;3.80;;;6.30;99.90;;;;;;6218669;23;20004;-75
2023/01/30 04:15:07;;;;;;;5.47;3.88;;;6.30;99.90;;;;;;6220338;23;20000;-76
2023/01/30 04:17:32;;;;;;;5.32;3.72;;;6.30;99.90;;;;;;6219807;23;20004;-75
2023/01/30 04:19:58;;;;;;;5.68;3.40;;;6.30;99.90;;;;;;6218597;23;20005;-76
2023/01/30 04:22:24;;;;;;;4.28;3.35;;;6.30;99.90;;;;;;6218435;23;20080;-76
2023/01/30 04:24:49;;;;;;;5.38;3.65;;;6.20;99.90;;;;;;6218658;23;20011;-75
2023/01/30 04:27:15;;;;;;;6.00;4.03;;;6.20;99.90;;;;;;6220129;23;20403;-76
2023/01/30 04:29:41;;;;;;;5.55;3.75;;;6.20;99.90;;;;;;6220194;23;20434;-76
2023/01/30 04:32:07;;;;;;;4.43;3.35;;;6.20;99.90;;;;;;6218196;23;20091;-76
2023/01/30 04:34:33;;;;;;;5.18;3.15;;;6.30;99.90;;;;;;6219050;23;20008;-75
2023/01/30 04:36:58;;;;;;;4.75;3.80;;;6.30;99.90;;;;;;6220185;23;20000;-75
2023/01/30 04:39:24;;;;;;;5.95;4.00;;;6.30;99.90;;;;;;6220013;23;20001;-76
2023/01/30 04:41:50;;;;;;;5.60;4.07;;;6.30;99.90;;;;;;6220032;23;20338;-75
2023/01/30 04:44:15;;;;;;;5.20;3.78;;;6.30;99.90;;;;;;6220242;23;20489;-75
2023/01/30 04:46:41;;;;;;;4.75;3.35;;;6.20;99.90;;;;;;6219807;23;20047;-75
2023/01/30 04:49:09;;;;;;;5.72;4.15;;;6.20;99.90;;;;;;6220109;23;20055;-76
2023/01/30 04:51:34;;;;;;;5.03;4.00;;;6.20;99.90;;;;;;6218722;23;20005;-76
2023/01/30 04:54:00;;;;;;;4.72;3.20;;;6.20;99.90;;;;;;6219996;23;20039;-76
2023/01/30 04:56:26;;;;;;;6.25;3.70;;;6.20;99.90;;;;;;6218314;23;20060;-76
2023/01/30 04:58:52;;;;;;;4.22;3.28;;;6.30;99.90;;;;;;6218971;23;20024;-76
2023/01/30 05:01:37;;;;;;;4.50;2.90;;;6.30;99.90;;;;;;6217525;23;20091;-76
2023/01/30 05:04:04;;;;;;;4.47;2.72;;;6.30;99.90;;;;;;6215872;23;20019;-75
2023/01/30 05:06:31;;;;;;;5.05;3.08;;;6.40;99.90;;;;;;6216281;23;20001;-76
2023/01/30 05:08:57;;;;;;;6.15;3.85;;;6.40;99.90;;;;;;6216446;23;20477;-75
2023/01/30 05:11:25;;;;;;;4.50;3.42;;;6.40;99.90;;;;;;6217788;23;20009;-75
2023/01/30 05:13:51;;;;;;;5.10;3.83;;;6.40;99.90;;;;;;6216381;23;20100;-76
2023/01/30 05:16:18;;;;;;;4.43;3.30;;;6.40;99.90;;;;;;6219967;23;20005;-76
2023/01/30 05:18:44;;;;;;;4.93;3.35;;;6.40;99.90;;;;;;6220718;23;20088;-76
2023/01/30 05:21:15;;;;;;;4.57;3.17;;;6.40;99.90;;;;;;6222212;23;20007;-77
2023/01/30 05:23:41;;;;;;;3.92;3.42;;;6.50;99.90;;;;;;6220622;23;20088;-75
2023/01/30 05:26:07;;;;;;;4.80;3.30;;;6.50;99.90;;;;;;6220230;23;20102;-75
2023/01/30 05:28:33;;;;;;;5.28;3.47;;;6.50;99.90;;;;;;6222049;23;20028;-75
2023/01/30 05:31:08;;;;;;;5.00;3.70;;;6.50;99.90;;;;;;6219593;23;20020;-75
2023/01/30 05:33:34;;;;;;;4.68;3.25;;;6.50;99.90;;;;;;6220545;23;20095;-75
2023/01/30 05:36:00;;;;;;;3.80;2.83;;;6.50;99.90;;;;;;6221857;23;20007;-76
2023/01/30 05:38:26;;;;;;;4.72;3.17;;;6.50;99.90;;;;;;6221796;23;20007;-75
2023/01/30 05:41:05;;;;;;;3.30;2.60;;;6.60;99.90;;;;;;6221855;23;20005;-75
2023/01/30 05:43:32;;;;;;;3.72;2.30;;;6.60;99.90;;;;;;6221782;23;20028;-76
2023/01/30 05:46:00;;;;;;;3.45;2.60;;;6.60;99.90;;;;;;6221132;23;20108;-75
2023/01/30 05:48:27;;;;;;;3.70;2.63;;;6.60;99.90;;;;;;6221756;23;20056;-75
2023/01/30 05:50:54;;;;;;;3.33;2.63;;;6.60;99.90;;;;;;6219848;23;20005;-76
2023/01/30 05:53:21;;;;;;;3.38;2.58;;;6.50;99.90;;;;;;6220458;23;20008;-75
2023/01/30 05:55:54;;;;;;;4.75;2.95;;;6.60;99.90;;;;;;6220444;23;20008;-75
2023/01/30 05:58:19;;;;;;;3.10;2.35;;;6.60;99.90;;;;;;6221489;23;20000;-77
2023/01/30 06:00:45;;;;;;;3.15;2.20;;;6.60;99.90;;;;;;6220973;23;20001;-77
2023/01/30 06:03:11;;;;;;;3.45;2.60;;;6.60;99.90;;;;;;6221105;23;20437;-77
2023/01/30 06:05:37;;;;;;;3.33;2.40;;;6.60;99.90;;;;;;6221283;23;20352;-77
2023/01/30 06:08:03;;;;;;;3.05;2.17;;;6.60;99.90;;;;;;6221578;23;20028;-77
2023/01/30 06:10:29;;;;;;;3.15;2.30;;;6.60;99.90;;;;;;6221292;23;20004;-77
2023/01/30 06:12:55;;;;;;;3.22;2.22;;;6.60;99.90;;;;;;6221753;23;20366;-76
2023/01/30 06:15:20;;;;;;;2.53;2.10;;;6.70;99.90;;;;;;6220024;23;20730;-76
2023/01/30 06:17:46;;;;;;;2.72;1.90;;;6.70;99.90;;;;;;6221080;23;20028;-76
2023/01/30 06:20:12;;;;;;;2.80;2.33;;;6.70;99.90;;;;;;6221574;23;20000;-76
2023/01/30 06:22:38;;;;;;;3.30;2.33;;;6.70;99.90;;;;;;6220165;23;20541;-76
2023/01/30 06:25:04;;;;;;;2.90;1.95;;;6.70;99.90;;;;;;6221506;23;20338;-77
2023/01/30 06:27:30;;;;;;;2.60;1.92;;;6.70;99.90;;;;;;6219256;23;20011;-78
2023/01/30 06:29:55;;;;;;;2.80;2.10;;;6.80;99.90;;;;;;6219597;23;20016;-77
2023/01/30 06:32:22;;;;;;;3.58;2.22;;;6.80;99.90;;;;;;6220468;23;20448;-78
2023/01/30 06:34:47;;;;;;;3.70;2.58;;;6.80;99.90;;;;;;6221269;23;20027;-79
2023/01/30 06:37:13;;;;;;;3.42;2.72;;;6.80;99.90;;;;;;6221028;23;20015;-78
2023/01/30 06:39:38;;;;;;;3.55;2.70;;;6.80;99.90;;;;;;6220619;23;20004;-77
2023/01/30 06:42:04;;;;;;;3.33;2.22;;;6.80;99.90;;;;;;6220997;23;20001;-79
2023/01/30 06:44:30;;;;;;;3.28;2.35;;;6.70;99.90;;;;;;6219817;23;20015;-77
2023/01/30 06:46:55;;;;;;;3.47;2.40;;;6.80;99.90;;;;;;6220844;23;20004;-78
2023/01/30 06:49:21;;;;;;;2.42;2.13;;;6.70;99.90;;;;;;6221332;23;20039;-78
2023/01/30 06:51:47;;;;;;;3.45;2.58;;;6.80;99.90;;;;;;6221329;23;19997;-78
2023/01/30 06:54:12;;;;;;;3.10;2.60;;;6.80;99.90;;;;;;6220713;23;20011;-78
2023/01/30 06:56:38;;;;;;;3.00;2.55;;;6.80;99.90;;;;;;6221196;23;20009;-77
2023/01/30 06:59:04;;;;;;;4.25;2.95;;;6.80;99.90;;;;;;6221204;23;20003;-78
2023/01/30 07:01:29;;;;;;;4.60;3.13;;;6.80;99.90;;;;;;6219336;23;20342;-76
2023/01/30 07:03:55;;;;;;;4.10;3.03;;;6.80;99.90;;;;;;6219596;23;20334;-76
2023/01/30 07:06:20;;;;;;;3.63;2.83;;;6.80;99.90;;;;;;6221196;23;20434;-76
2023/01/30 07:08:46;;;;;;;4.28;3.08;;;6.80;99.90;;;;;;6219510;23;20001;-76
2023/01/30 07:11:12;;;;;;;3.53;2.80;;;6.80;99.90;;;;;;6219579;23;20000;-76
2023/01/30 07:13:37;;;;;;;3.95;2.60;;;6.80;99.90;;;;;;6220956;23;20005;-76
2023/01/30 07:16:03;;;;;;;4.72;3.42;;;6.80;99.90;;;;;;6220489;23;20009;-75
2023/01/30 07:18:29;;;;;;;4.43;2.88;;;6.80;99.90;;;;;;6219463;23;20055;-76
2023/01/30 07:20:54;;;;;;;3.47;2.78;;;6.80;99.90;;;;;;6221026;23;20075;-76
2023/01/30 07:23:20;;;;;;;3.83;2.85;;;6.80;99.90;;;;;;6220635;23;20001;-76
2023/01/30 07:25:46;;;;;;;3.67;3.08;;;6.90;99.90;;;;;;6220704;23;20001;-76
2023/01/30 07:28:11;;;;;;;4.55;3.28;;;6.80;99.90;;;;;;6221039;23;19996;-76
2023/01/30 07:30:37;;;;;;;4.57;3.70;;;6.90;99.90;;;;;;6220472;23;20009;-75
2023/01/30 07:33:05;;;;;;;3.47;2.75;;;6.80;99.90;;;;;;6220789;23;20005;-76
2023/01/30 07:35:34;;;;;;;4.20;3.65;;;6.90;99.90;;;;;;6221151;23;20315;-75
2023/01/30 07:37:59;;;;;;;5.13;3.80;;;6.80;99.90;;;;;;6218517;23;20083;-76
2023/01/30 07:40:25;;;;;;;5.72;4.07;;;6.80;99.90;;;;;;6219176;23;20031;-75
2023/01/30 07:42:59;;;;;;;5.68;3.90;;;6.90;99.90;;;;;;6219359;23;20453;-75
2023/01/30 07:45:28;;;;;;;4.35;3.53;;;6.80;99.90;;;;;;6220516;23;19996;-76
2023/01/30 07:47:54;;;;;;;5.07;4.15;;;6.80;99.90;;;;;;6219651;23;20070;-76
2023/01/30 07:50:20;;;;;;;5.65;4.05;;;6.80;99.90;;;;;;6220659;23;19997;-75
2023/01/30 07:52:45;;;;;;;5.90;4.15;;;6.80;99.90;;;;;;6220444;23;20000;-75
2023/01/30 07:55:11;;;;;;;6.38;4.38;;;6.90;99.90;;;;;;6220625;23;20020;-75
2023/01/30 07:57:37;;;;;;;7.05;4.30;;;6.80;99.90;;;;;;6220734;23;20008;-75
2023/01/30 08:00:03;;;;;;;6.13;4.40;;;6.90;99.90;;;;;;6220829;23;20008;-75
2023/01/30 08:02:29;;;;;;;5.57;4.13;;;6.90;99.90;;;;;;6219720;23;20023;-75
2023/01/30 08:04:54;;;;;;;3.83;2.90;;;6.90;99.90;;;;;;6220137;23;20000;-77
2023/01/30 08:07:20;;;;;;;5.38;4.40;;;6.90;99.90;;;;;;6220224;23;20090;-78
2023/01/30 08:09:46;;;;;;;5.82;3.40;;;6.90;99.90;;;;;;6220328;23;20001;-79
2023/01/30 08:12:12;;;;;;;5.05;3.97;;;7.00;99.90;;;;;;6219996;23;20000;-79
2023/01/30 08:14:38;;;;;;;4.65;3.53;;;6.90;99.90;;;;;;6219040;23;20004;-78
2023/01/30 08:17:03;;;;;;;4.80;3.47;;;6.90;99.90;;;;;;6216789;23;20373;-75
2023/01/30 08:19:29;;;;;;;4.32;3.65;;;7.00;99.90;;;;;;6219205;23;20001;-68
2023/01/30 08:21:55;;;;;;;5.43;4.00;;;7.00;99.90;;;;;;6220445;23;20004;-73
2023/01/30 08:24:20;;;;;;;4.50;3.53;;;7.10;99.90;;;;;;6220539;23;19997;-73
2023/01/30 08:26:49;;;;;;;5.32;3.60;;;7.10;99.90;;;;;;6218284;23;20771;-73
2023/01/30 08:29:15;;;;;;;5.47;3.95;;;7.10;99.90;;;;;;6220342;23;20083;-69
2023/01/30 08:31:41;;;;;;;5.45;4.10;;;7.10;99.90;;;;;;6220106;23;20022;-69
2023/01/30 08:34:07;;;;;;;5.05;3.75;;;7.10;99.90;;;;;;6220524;23;20430;-68
2023/01/30 08:36:32;;;;;;;5.53;3.85;;;7.10;99.90;;;;;;6219489;23;20374;-69
2023/01/30 08:38:58;;;;;;;4.38;3.10;;;7.10;99.90;;;;;;6220428;23;20386;-69
2023/01/30 08:41:26;;;;;;;4.53;3.03;;;7.10;99.90;;;;;;6220396;23;20005;-69
2023/01/30 08:43:51;;;;;;;4.97;3.70;;;7.20;99.90;;;;;;6218557;23;20456;-68
2023/01/30 08:46:18;;;;;;;4.05;2.95;;;7.20;99.90;;;;;;6219787;23;20001;-68
2023/01/30 08:48:45;;;;;;;4.78;3.50;;;7.10;99.90;;;;;;6218472;23;20005;-68
2023/01/30 08:51:10;;;;;;;4.15;3.30;;;7.10;99.90;;;;;;6221741;23;19997;-72
2023/01/30 08:53:36;;;;;;;4.18;3.05;;;7.20;99.90;;;;;;6220741;23;20012;-72
2023/01/30 08:56:02;;;;;;;4.20;3.40;;;7.20;99.90;;;;;;6221834;23;20008;-72
2023/01/30 08:58:27;;;;;;;4.35;3.30;;;7.30;99.90;;;;;;6222229;23;20032;-72
2023/01/30 09:00:53;;;;;;;5.63;3.30;;;7.30;99.90;;;;;;6221996;23;20342;-72
2023/01/30 09:03:19;;;;;;;5.03;3.45;;;7.40;99.90;;;;;;6220532;23;20088;-72
2023/01/30 09:05:45;;;;;;;4.80;3.40;;;7.40;99.90;;;;;;6222190;23;19997;-72
2023/01/30 09:08:11;;;;;;;4.53;3.47;;;7.40;99.90;;;;;;6222127;23;20001;-72
2023/01/30 09:10:36;;;;;;;3.72;2.78;;;7.40;99.90;;;;;;6219083;23;20080;-72
2023/01/30 09:13:04;;;;;;;5.70;3.13;;;7.50;99.90;;;;;;6218405;23;20005;-72
2023/01/30 09:15:30;;;;;;;5.05;3.70;;;7.60;99.90;;;;;;6221784;23;20442;-72
2023/01/30 09:17:56;;;;;;;5.28;3.53;;;7.60;99.90;;;;;;6221757;23;20008;-72
2023/01/30 09:20:21;;;;;;;4.25;3.10;;;7.70;99.90;;;;;;6222260;23;20000;-72
2023/01/30 09:22:48;;;;;;;4.45;3.30;;;7.60;99.90;;;;;;6222257;23;20008;-73
2023/01/30 09:25:14;;;;;;;4.68;3.75;;;7.60;99.90;;;;;;6222419;23;20083;-72
2023/01/30 09:27:43;;;;;;;4.28;3.63;;;7.60;99.90;;;;;;6222503;23;19997;-72
2023/01/30 09:30:09;;;;;;;4.22;3.38;;;7.60;99.90;;;;;;6221751;23;20031;-72
2023/01/30 09:32:36;;;;;;;4.22;3.10;;;7.70;99.90;;;;;;6221575;23;20012;-72
2023/01/30 09:35:02;;;;;;;4.95;3.45;;;7.80;99.90;;;;;;6222053;23;20056;-72
2023/01/30 09:37:28;;;;;;;3.83;3.00;;;7.80;99.90;;;;;;6222113;23;20004;-72
2023/01/30 09:39:54;;;;;;;4.28;3.00;;;7.90;99.90;;;;;;6222086;23;20464;-72
2023/01/30 09:42:32;;;;;;;3.85;2.90;;;7.80;99.90;;;;;;6221912;23;20011;-72
2023/01/30 09:45:35;;;;;;;3.30;2.67;;;7.90;99.90;;;;;;6220244;23;20005;-72
2023/01/30 09:48:21;;;;;;;3.10;2.58;;;8.00;99.90;;;;;;6219861;23;20001;-72
2023/01/30 09:51:04;;;;;;;3.45;2.60;;;8.10;99.90;;;;;;6222117;23;20004;-72
2023/01/30 09:53:35;;;;;;;3.45;2.58;;;8.00;99.90;;;;;;6221967;23;20001;-72
2023/01/30 09:56:00;;;;;;;3.15;2.58;;;8.10;99.90;;;;;;6220084;23;20338;-72
2023/01/30 09:58:47;;;;;;;3.67;2.92;;;8.10;99.90;;;;;;6221862;23;20075;-72
2023/01/30 10:01:24;;;;;;;3.40;2.55;;;8.10;99.90;;;;;;6221247;23;20068;-72
2023/01/30 10:04:23;;;;;;;3.97;2.97;;;8.10;99.90;;;;;;6218265;23;20128;-72
2023/01/30 10:07:00;;;;;;;2.80;2.47;;;8.10;99.90;;;;;;6220239;23;20051;-72
2023/01/30 10:09:51;;;;;;;3.28;2.65;;;8.10;99.90;;;;;;6219938;23;20000;-72
2023/01/30 10:12:37;;;;;;;2.88;2.15;;;8.10;99.90;;;;;;6221611;23;20008;-72
2023/01/30 10:15:15;;;;;;;3.35;2.90;;;8.10;99.90;;;;;;6221597;23;20011;-72
2023/01/30 10:17:56;;;;;;;4.25;2.60;;;8.10;99.90;;;;;;6221348;23;20027;-72
2023/01/30 10:20:37;;;;;;;3.53;2.20;;;8.10;99.90;;;;;;6219959;23;20009;-72
2023/01/30 10:23:38;;;;;;;3.67;2.75;;;8.10;99.90;;;;;;6221584;23;20369;-72
2023/01/30 10:26:12;;;;;;;3.00;2.28;;;8.20;99.90;;;;;;6220092;23;20001;-72
2023/01/30 10:28:40;;;;;;;;;;;8.20;99.90;;;;;;6220061;23;20001;-72
2023/01/30 10:31:15;;;;;;;3.30;2.28;;;8.20;99.90;;;;;;6221102;23;20340;-73
2023/01/30 10:34:25;;;;;;;3.45;2.25;;;8.20;99.90;;;;;;6219608;23;20334;-72
2023/01/30 10:36:59;;;;;;;2.65;1.92;;;8.30;99.90;;;;;;6186934;23;20090;-72
2023/01/30 10:39:54;;;;;;;2.65;2.20;;;8.40;99.90;;;;;;6221503;23;20005;-72
2023/01/30 10:42:44;;;;;;;2.80;2.17;;;8.40;99.90;;;;;;6221570;23;20076;-72
2023/01/30 10:45:16;;;;;;;2.53;1.98;;;8.50;99.90;;;;;;6221413;23;19997;-72
2023/01/30 10:48:10;;;;;;;3.70;2.80;;;8.60;99.90;;;;;;6221093;23;19996;-72
2023/01/30 10:50:57;;;;;;;2.55;2.22;;;8.60;99.90;;;;;;6220667;23;20430;-72
2023/01/30 10:53:49;;;;;;;3.45;2.47;;;8.60;99.90;;;;;;6219648;23;20342;-72
2023/01/30 10:56:28;;;;;;;3.33;2.22;;;8.70;99.90;;;;;;6219873;23;20083;-72
2023/01/30 10:59:17;;;;;;;3.08;1.98;;;8.70;99.90;;;;;;6221117;23;20005;-74
2023/01/30 11:01:47;;;;;;;2.75;2.17;;;8.70;99.90;;;;;;6219365;23;20430;-73
2023/01/30 11:04:30;;;;;;;3.20;2.33;;;8.80;99.90;;;;;;6221352;23;20044;-73
2023/01/30 11:06:58;;;;;;;3.03;2.37;;;8.80;99.90;;;;;;6221358;23;20068;-73
2023/01/30 11:09:41;;;;;;;3.72;2.65;;;8.90;99.90;;;;;;6221162;23;20027;-73
2023/01/30 11:12:06;;;;;;;3.10;2.30;;;8.90;99.90;;;;;;6221059;23;20004;-73
2023/01/30 11:14:52;;;;;;;3.20;2.47;;;8.90;99.90;;;;;;6219922;23;19996;-69
2023/01/30 11:17:20;;;;;;;3.38;2.42;;;9.00;99.90;;;;;;6219995;23;19996;-69
2023/01/30 11:19:56;;;;;;;4.00;2.75;;;9.00;99.90;;;;;;6220935;23;20005;-69
2023/01/30 11:22:27;;;;;;;3.05;2.20;;;9.00;99.90;;;;;;6220627;23;20005;-70
2023/01/30 11:25:13;;;;;;;3.50;2.53;;;9.00;99.90;;;;;;6220515;23;20007;-70
2023/01/30 11:27:43;;;;;;;3.92;2.65;;;9.00;99.90;;;;;;6220404;23;20071;-70
2023/01/30 11:30:13;;;;;;;3.40;2.47;;;9.00;99.90;;;;;;6217001;23;20020;-70
2023/01/30 11:32:45;;;;;;;4.40;2.40;;;9.00;99.90;;;;;;6217774;23;20013;-70
2023/01/30 11:35:13;;;;;;;4.05;2.50;;;9.10;99.90;;;;;;6219807;23;20001;-70
2023/01/30 11:37:41;;;;;;;5.03;2.53;;;9.10;99.90;;;;;;6220038;23;20878;-70
2023/01/30 11:40:19;;;;;;;4.43;2.72;;;9.20;99.90;;;;;;6220579;23;20023;-70
2023/01/30 11:42:51;;;;;;;3.08;2.22;;;9.20;99.90;;;;;;6219350;23;20015;-70
2023/01/30 11:45:18;;;;;;;4.10;2.72;;;9.20;99.90;;;;;;6218046;23;20000;-70
2023/01/30 11:47:53;;;;;;;3.13;2.67;;;9.20;99.90;;;;;;6217231;23;20019;-70
2023/01/30 11:50:22;;;;;;;4.10;2.72;;;9.40;99.90;;;;;;6218746;23;20001;-70
2023/01/30 11:52:48;;;;;;;2.83;2.33;;;9.40;99.90;;;;;;6217812;23;20008;-70
2023/01/30 11:55:18;;;;;;;3.30;2.30;;;9.50;99.90;;;;;;6220237;23;20042;-70
2023/01/30 11:57:51;;;;;;;3.65;2.33;;;9.60;99.90;;;;;;6218067;23;20011;-69
2023/01/30 12:00:23;;;;;;;5.50;2.25;;;9.60;99.90;;;;;;6217991;23;20015;-69
2023/01/30 12:02:51;;;;;;;3.33;2.25;;;9.70;99.90;;;;;;6219255;23;20005;-70
2023/01/30 12:05:33;;;;;;;3.85;3.00;;;9.70;99.90;;;;;;6220261;23;20024;-70
2023/01/30 12:08:20;;;;;;;3.67;2.22;;;9.70;99.90;;;;;;6219034;23;20008;-69
2023/01/30 12:10:58;;;;;;;3.40;2.03;;;9.70;99.90;;;;;;6220332;23;19997;-69
2023/01/30 12:13:30;;;;;;;2.80;2.33;;;9.80;99.90;;;;;;6218065;23;20004;-69
2023/01/30 12:16:15;;;;;;;2.83;1.92;;;9.80;99.90;;;;;;6219372;23;20449;-69
2023/01/30 12:18:51;;;;;;;2.80;2.30;;;9.80;99.90;;;;;;6219885;23;20079;-70
2023/01/30 12:21:35;;;;;;;2.72;2.17;;;9.70;99.90;;;;;;6219679;23;20001;-69
2023/01/30 12:24:37;;;;;;;2.65;2.38;;;9.70;99.90;;;;;;6219712;23;20088;-69
2023/01/30 12:27:19;;;;;;;3.63;2.30;;;9.70;99.90;;;;;;6216443;23;20001;-69
2023/01/30 12:30:01;;;;;;;4.75;2.65;;;9.70;99.90;;;;;;6219982;23;20385;-73
2023/01/30 12:32:29;;;;;;;3.35;2.20;;;9.70;99.90;;;;;;6218647;23;20001;-70
2023/01/30 12:34:55;;;;;;;3.25;2.20;;;9.70;99.90;;;;;;6219309;23;20028;-69
2023/01/30 12:37:39;;;;;;;4.10;2.55;;;9.80;99.90;;;;;;6217562;23;20009;-69
2023/01/30 12:40:26;;;;;;;2.97;2.10;;;9.80;99.90;;;;;;6217189;23;20008;-69
2023/01/30 12:43:01;;;;;;;4.45;2.00;;;9.90;99.90;;;;;;6219781;23;20072;-69
2023/01/30 12:45:34;;;;;;;3.40;2.10;;;9.90;99.90;;;;;;6218121;23;20371;-69
2023/01/30 12:48:55;;;;;;;2.95;2.17;;;10.00;99.90;;;;;;6220053;23;20453;-69
2023/01/30 12:51:58;;;;;;;2.80;1.80;;;10.10;99.90;;;;;;6117940;23;20446;-70
2023/01/30 12:55:05;;;;;;;2.88;2.00;;;10.10;99.90;;;;;;6220118;23;20532;-70
2023/01/30 12:57:45;;;;;;;3.38;2.33;;;10.30;99.90;;;;;;6191298;23;20389;-69
2023/01/30 13:00:26;;;;;;;2.13;1.80;;;10.20;99.90;;;;;;6220308;23;20003;-69
2023/01/30 13:03:08;;;;;;;4.22;2.72;;;10.10;99.90;;;;;;6217148;23;20051;-69
2023/01/30 13:05:39;;;;;;;3.83;2.13;;;10.10;99.90;;;;;;6220075;23;20004;-69
2023/01/30 13:08:18;;;;;;;4.70;2.42;;;10.10;99.90;;;;;;6220379;23;20001;-69
2023/01/30 13:11:27;;;;;;;3.72;2.47;;;10.10;99.90;;;;;;6220263;23;20011;-69
2023/01/30 13:14:32;;;;;;;3.33;2.25;;;10.20;99.90;;;;;;6212623;23;20012;-70
2023/01/30 13:17:04;;;;;;;3.70;2.33;;;10.20;99.90;;;;;;6219781;23;20056;-69
2023/01/30 13:19:41;;;;;;;2.85;2.15;;;10.20;99.90;;;;;;6220539;23;20366;-70
2023/01/30 13:22:11;;;;;;;3.33;2.20;;;10.20;99.90;;;;;;6220071;23;20080;-69
2023/01/30 13:24:46;;;;;;;4.10;2.65;;;10.30;99.90;;;;;;6218453;23;20028;-69
2023/01/30 13:27:18;;;;;;;3.47;2.50;;;10.20;99.90;;;;;;6218139;23;20024;-69